createdAt,value
2019-06-25T00:00:02.710Z,23.4
2019-06-25T00:01:04.403Z,23.3
2019-06-25T00:02:05.810Z,23.5
2019-06-25T00:03:07.467Z,23.5
2019-06-25T00:04:08.863Z,23.2
2019-06-25T00:05:10.550Z,23.1
2019-06-25T00:06:11.952Z,23.2
2019-06-25T00:07:13.638Z,23.0
2019-06-25T00:08:15.037Z,23.1
2019-06-25T00:09:16.435Z,22.9
2019-06-25T00:10:17.976Z,22.9
2019-06-25T00:11:19.374Z,22.8
2019-06-25T00:12:20.781Z,22.9
2019-06-25T00:13:22.280Z,23.0
2019-06-25T00:14:23.677Z,23.4
2019-06-25T00:15:25.360Z,23.5
2019-06-25T00:16:26.765Z,23.5
2019-06-25T00:17:28.448Z,23.5
2019-06-25T00:18:29.852Z,23.5
2019-06-25T00:19:31.533Z,23.4
2019-06-25T00:20:32.934Z,23.1
2019-06-25T00:21:34.619Z,23.6
2019-06-25T00:22:36.018Z,23.4
2019-06-25T00:23:37.705Z,23.3
2019-06-25T00:24:39.108Z,23.3
2019-06-25T00:25:40.791Z,23.1
2019-06-25T00:26:42.194Z,23.4
2019-06-25T00:27:43.878Z,23.5
2019-06-25T00:28:45.274Z,23.3
2019-06-25T00:29:55.742Z,23.4
2019-06-25T00:30:48.199Z,23.2
2019-06-25T00:31:49.600Z,23.1
2019-06-25T00:32:51.003Z,23.1
2019-06-25T00:33:52.524Z,23.0
2019-06-25T00:34:53.921Z,22.9
2019-06-25T00:35:55.323Z,22.8
2019-06-25T00:36:56.841Z,22.6
2019-06-25T00:37:58.241Z,22.7
2019-06-25T00:38:59.643Z,22.5
2019-06-25T00:40:01.171Z,22.6
2019-06-25T00:41:02.601Z,22.5
2019-06-25T00:42:04.249Z,22.5
2019-06-25T00:43:05.646Z,22.6
2019-06-25T00:44:07.426Z,22.7
2019-06-25T00:45:08.829Z,22.7
2019-06-25T00:46:10.420Z,22.8
2019-06-25T00:47:11.823Z,23.0
2019-06-25T00:48:13.505Z,22.8
2019-06-25T00:49:14.906Z,22.7
2019-06-25T00:50:16.305Z,22.9
2019-06-25T00:51:17.834Z,23.1
2019-06-25T00:52:19.237Z,22.9
2019-06-25T00:53:20.639Z,22.9
2019-06-25T00:54:22.156Z,22.9
2019-06-25T00:55:23.548Z,22.6
2019-06-25T00:56:24.952Z,22.4
2019-06-25T00:57:26.475Z,22.6
2019-06-25T00:58:27.869Z,22.6
2019-06-25T00:59:29.275Z,22.6
2019-06-25T01:00:30.794Z,22.7
2019-06-25T01:01:32.197Z,22.6
2019-06-25T01:02:33.600Z,22.7
2019-06-25T01:03:35.119Z,22.3
2019-06-25T01:04:36.511Z,22.3
2019-06-25T01:05:37.950Z,22.4
2019-06-25T01:06:39.433Z,22.3
2019-06-25T01:07:40.867Z,22.3
2019-06-25T01:08:42.268Z,22.1
2019-06-25T01:09:43.768Z,22.3
2019-06-25T01:10:45.157Z,22.1
2019-06-25T01:11:46.639Z,22.1
2019-06-25T01:12:48.040Z,22.2
2019-06-25T01:13:49.726Z,22.4
2019-06-25T01:14:51.126Z,22.2
2019-06-25T01:15:52.530Z,22.1
2019-06-25T01:16:54.046Z,22.0
2019-06-25T01:17:55.452Z,22.1
2019-06-25T01:18:56.842Z,22.0
2019-06-25T01:19:58.366Z,22.1
2019-06-25T01:20:59.775Z,22.0
2019-06-25T01:22:01.210Z,22.2
2019-06-25T01:23:02.689Z,21.9
2019-06-25T01:24:04.089Z,22.1
2019-06-25T01:25:05.490Z,22.0
2019-06-25T01:26:07.017Z,22.0
2019-06-25T01:27:08.410Z,22.1
2019-06-25T01:28:09.829Z,22.2
2019-06-25T01:29:11.354Z,22.1
2019-06-25T01:30:25.293Z,22.2
2019-06-25T01:31:14.212Z,22.0
2019-06-25T01:32:15.615Z,22.2
2019-06-25T01:33:17.297Z,22.0
2019-06-25T01:34:18.695Z,22.1
2019-06-25T01:35:20.093Z,22.0
2019-06-25T01:36:21.619Z,21.9
2019-06-25T01:37:23.030Z,21.9
2019-06-25T01:38:24.429Z,21.9
2019-06-25T01:39:25.940Z,22.0
2019-06-25T01:40:27.345Z,22.0
2019-06-25T01:41:28.744Z,22.0
2019-06-25T01:42:30.260Z,22.0
2019-06-25T01:43:31.674Z,22.0
2019-06-25T01:44:33.072Z,22.3
2019-06-25T01:45:34.587Z,22.2
2019-06-25T01:46:35.985Z,22.0
2019-06-25T01:47:37.382Z,22.1
2019-06-25T01:48:38.915Z,21.9
2019-06-25T01:49:40.312Z,21.8
2019-06-25T01:50:41.716Z,22.1
2019-06-25T01:51:43.226Z,21.8
2019-06-25T01:52:44.638Z,21.9
2019-06-25T01:53:46.032Z,22.3
2019-06-25T01:54:47.547Z,22.2
2019-06-25T01:55:48.945Z,22.2
2019-06-25T01:56:50.340Z,22.1
2019-06-25T01:57:51.868Z,22.0
2019-06-25T01:58:53.307Z,22.1
2019-06-25T01:59:54.673Z,22.0
2019-06-25T02:00:56.190Z,22.0
2019-06-25T02:01:57.594Z,22.0
2019-06-25T02:02:59.001Z,22.2
2019-06-25T02:04:00.511Z,22.2
2019-06-25T02:05:01.911Z,22.0
2019-06-25T02:06:03.345Z,21.9
2019-06-25T02:07:04.835Z,21.8
2019-06-25T02:08:06.267Z,21.9
2019-06-25T02:09:07.922Z,21.9
2019-06-25T02:10:09.318Z,22.0
2019-06-25T02:11:11.826Z,21.8
2019-06-25T02:12:13.228Z,22.0
2019-06-25T02:13:14.905Z,22.1
2019-06-25T02:14:16.311Z,22.3
2019-06-25T02:15:17.724Z,22.1
2019-06-25T02:16:19.230Z,22.1
2019-06-25T02:17:20.636Z,22.3
2019-06-25T02:18:22.079Z,22.3
2019-06-25T02:19:23.552Z,21.9
2019-06-25T02:20:24.958Z,22.1
2019-06-25T02:21:26.357Z,22.1
2019-06-25T02:22:27.875Z,22.0
2019-06-25T02:23:29.273Z,22.2
2019-06-25T02:24:30.752Z,22.2
2019-06-25T02:25:32.152Z,21.9
2019-06-25T02:26:33.640Z,22.0
2019-06-25T02:27:35.034Z,21.9
2019-06-25T02:28:36.515Z,21.8
2019-06-25T02:29:37.923Z,21.8
2019-06-25T02:30:39.316Z,21.6
2019-06-25T02:31:40.842Z,21.7
2019-06-25T02:32:42.256Z,21.4
2019-06-25T02:33:43.648Z,21.7
2019-06-25T02:34:45.158Z,21.6
2019-06-25T02:35:46.563Z,21.5
2019-06-25T02:36:47.961Z,21.6
2019-06-25T02:37:49.482Z,21.5
2019-06-25T02:38:50.885Z,21.4
2019-06-25T02:39:52.287Z,21.4
2019-06-25T02:40:53.798Z,21.4
2019-06-25T02:41:55.220Z,21.3
2019-06-25T02:42:56.686Z,21.4
2019-06-25T02:43:58.084Z,21.2
2019-06-25T02:44:59.561Z,21.3
2019-06-25T02:46:00.961Z,21.1
2019-06-25T02:47:02.442Z,21.2
2019-06-25T02:48:03.844Z,21.3
2019-06-25T02:49:05.324Z,21.4
2019-06-25T02:50:06.727Z,21.4
2019-06-25T02:51:08.128Z,21.7
2019-06-25T02:52:09.649Z,21.6
2019-06-25T02:53:11.046Z,21.7
2019-06-25T02:54:12.450Z,21.4
2019-06-25T02:55:13.968Z,21.4
2019-06-25T02:56:15.401Z,21.3
2019-06-25T02:57:17.053Z,21.5
2019-06-25T02:58:18.461Z,21.4
2019-06-25T02:59:19.935Z,21.8
2019-06-25T03:00:21.334Z,21.6
2019-06-25T03:01:29.492Z,21.5
2019-06-25T03:02:24.213Z,21.4
2019-06-25T03:03:25.697Z,21.6
2019-06-25T03:04:27.098Z,21.6
2019-06-25T03:05:28.502Z,21.6
2019-06-25T03:06:30.018Z,21.6
2019-06-25T03:07:31.419Z,21.4
2019-06-25T03:08:32.820Z,21.5
2019-06-25T03:09:34.343Z,21.3
2019-06-25T03:10:35.747Z,21.6
2019-06-25T03:11:37.151Z,21.5
2019-06-25T03:12:38.676Z,21.4
2019-06-25T03:13:40.077Z,21.4
2019-06-25T03:14:41.475Z,21.2
2019-06-25T03:15:42.990Z,21.3
2019-06-25T03:16:44.383Z,21.4
2019-06-25T03:17:45.784Z,21.4
2019-06-25T03:18:47.303Z,21.4
2019-06-25T03:19:48.719Z,21.3
2019-06-25T03:20:50.108Z,21.2
2019-06-25T03:21:51.633Z,21.3
2019-06-25T03:22:53.033Z,21.4
2019-06-25T03:23:54.438Z,21.4
2019-06-25T03:24:56.056Z,21.1
2019-06-25T03:25:57.320Z,21.4
2019-06-25T03:26:58.721Z,21.1
2019-06-25T03:28:00.268Z,21.4
2019-06-25T03:29:01.681Z,21.3
2019-06-25T03:30:03.223Z,21.3
2019-06-25T03:31:04.592Z,21.4
2019-06-25T03:32:09.951Z,21.4
2019-06-25T03:33:07.369Z,21.4
2019-06-25T03:34:08.911Z,21.4
2019-06-25T03:35:10.314Z,21.3
2019-06-25T03:36:11.713Z,21.5
2019-06-25T03:37:13.237Z,21.6
2019-06-25T03:38:14.637Z,21.6
2019-06-25T03:39:16.115Z,21.7
2019-06-25T03:40:17.521Z,21.5
2019-06-25T03:41:18.927Z,21.4
2019-06-25T03:42:20.434Z,21.4
2019-06-25T03:43:21.839Z,21.3
2019-06-25T03:44:23.242Z,21.2
2019-06-25T03:45:24.761Z,21.3
2019-06-25T03:46:26.160Z,21.6
2019-06-25T03:47:27.569Z,21.4
2019-06-25T03:48:29.081Z,21.5
2019-06-25T03:49:30.487Z,21.3
2019-06-25T03:50:31.961Z,21.4
2019-06-25T03:51:33.371Z,21.6
2019-06-25T03:52:35.049Z,21.8
2019-06-25T03:53:36.455Z,21.6
2019-06-25T03:54:38.135Z,21.9
2019-06-25T03:55:39.540Z,21.9
2019-06-25T03:56:40.938Z,21.8
2019-06-25T03:57:42.451Z,21.8
2019-06-25T03:58:43.853Z,21.8
2019-06-25T03:59:45.267Z,21.9
2019-06-25T04:00:46.786Z,21.8
2019-06-25T04:01:48.194Z,21.8
2019-06-25T04:02:49.603Z,22.0
2019-06-25T04:03:51.095Z,22.0
2019-06-25T04:04:52.504Z,22.0
2019-06-25T04:05:53.902Z,22.2
2019-06-25T04:06:55.416Z,22.0
2019-06-25T04:07:56.824Z,22.2
2019-06-25T04:08:58.297Z,21.9
2019-06-25T04:09:59.707Z,22.2
2019-06-25T04:11:01.184Z,22.4
2019-06-25T04:12:02.586Z,22.3
2019-06-25T04:13:03.991Z,22.4
2019-06-25T04:14:05.503Z,22.4
2019-06-25T04:15:06.907Z,22.5
2019-06-25T04:16:08.316Z,22.4
2019-06-25T04:17:09.823Z,22.6
2019-06-25T04:18:11.225Z,22.5
2019-06-25T04:19:12.626Z,22.6
2019-06-25T04:20:14.144Z,22.5
2019-06-25T04:21:15.548Z,22.5
2019-06-25T04:22:17.003Z,22.6
2019-06-25T04:23:18.467Z,22.7
2019-06-25T04:24:19.874Z,22.7
2019-06-25T04:25:21.384Z,22.8
2019-06-25T04:26:22.782Z,22.7
2019-06-25T04:27:24.235Z,22.8
2019-06-25T04:28:25.689Z,22.9
2019-06-25T04:29:27.108Z,22.8
2019-06-25T04:30:28.524Z,22.8
2019-06-25T04:31:29.996Z,22.9
2019-06-25T04:32:33.738Z,22.9
2019-06-25T04:33:32.868Z,22.9
2019-06-25T04:34:34.275Z,22.9
2019-06-25T04:35:35.749Z,22.9
2019-06-25T04:36:37.158Z,22.9
2019-06-25T04:37:38.566Z,22.9
2019-06-25T04:38:40.073Z,22.9
2019-06-25T04:39:41.477Z,22.9
2019-06-25T04:40:42.887Z,23.0
2019-06-25T04:41:44.399Z,23.0
2019-06-25T04:42:45.804Z,23.1
2019-06-25T04:43:47.274Z,23.0
2019-06-25T04:44:48.680Z,23.1
2019-06-25T04:45:50.163Z,23.1
2019-06-25T04:46:51.571Z,23.2
2019-06-25T04:47:52.979Z,23.2
2019-06-25T04:48:54.487Z,23.3
2019-06-25T04:49:55.901Z,23.2
2019-06-25T04:50:57.310Z,23.2
2019-06-25T04:51:58.799Z,23.2
2019-06-25T04:53:00.205Z,23.2
2019-06-25T04:54:01.678Z,23.2
2019-06-25T04:55:03.089Z,23.2
2019-06-25T04:56:04.563Z,23.1
2019-06-25T04:57:05.974Z,23.1
2019-06-25T04:58:07.389Z,23.2
2019-06-25T04:59:08.883Z,23.3
2019-06-25T05:00:10.304Z,23.2
2019-06-25T05:01:11.694Z,23.2
2019-06-25T05:02:13.206Z,23.1
2019-06-25T05:03:14.607Z,23.4
2019-06-25T05:04:16.084Z,23.5
2019-06-25T05:05:17.516Z,23.6
2019-06-25T05:06:18.981Z,23.6
2019-06-25T05:07:20.390Z,23.6
2019-06-25T05:08:21.790Z,23.5
2019-06-25T05:09:23.347Z,23.5
2019-06-25T05:10:24.737Z,23.5
2019-06-25T05:11:26.148Z,23.5
2019-06-25T05:12:27.607Z,23.4
2019-06-25T05:13:29.018Z,23.5
2019-06-25T05:14:30.430Z,23.5
2019-06-25T05:15:31.927Z,23.5
2019-06-25T05:16:33.330Z,23.4
2019-06-25T05:17:34.738Z,23.6
2019-06-25T05:18:36.250Z,23.6
2019-06-25T05:19:37.651Z,23.6
2019-06-25T05:20:39.130Z,23.5
2019-06-25T05:21:40.546Z,23.4
2019-06-25T05:22:42.013Z,23.4
2019-06-25T05:23:43.414Z,23.6
2019-06-25T05:24:44.892Z,23.7
2019-06-25T05:25:46.295Z,23.8
2019-06-25T05:26:47.775Z,23.7
2019-06-25T05:27:49.184Z,23.7
2019-06-25T05:28:50.658Z,23.8
2019-06-25T05:29:52.067Z,24.1
2019-06-25T05:30:53.536Z,24.1
2019-06-25T05:31:54.943Z,24.1
2019-06-25T05:33:05.490Z,24.0
2019-06-25T05:33:57.789Z,24.1
2019-06-25T05:34:59.300Z,24.2
2019-06-25T05:36:00.704Z,24.3
2019-06-25T05:37:02.180Z,24.4
2019-06-25T05:38:03.589Z,24.4
2019-06-25T05:39:05.058Z,24.5
2019-06-25T05:40:06.501Z,24.6
2019-06-25T05:41:07.908Z,24.6
2019-06-25T05:42:09.317Z,24.6
2019-06-25T05:43:10.831Z,24.7
2019-06-25T05:44:12.223Z,24.8
2019-06-25T05:45:13.631Z,24.9
2019-06-25T05:46:15.145Z,24.9
2019-06-25T05:47:16.550Z,24.8
2019-06-25T05:48:18.011Z,24.9
2019-06-25T05:49:19.364Z,24.9
2019-06-25T05:50:20.771Z,25.0
2019-06-25T05:51:22.180Z,25.1
2019-06-25T05:52:23.686Z,25.4
2019-06-25T05:53:25.096Z,25.2
2019-06-25T05:54:26.612Z,25.2
2019-06-25T05:55:28.014Z,25.2
2019-06-25T05:56:29.445Z,25.3
2019-06-25T05:57:30.848Z,25.3
2019-06-25T05:58:32.266Z,25.6
2019-06-25T05:59:36.916Z,25.6
2019-06-25T06:00:35.136Z,25.6
2019-06-25T06:01:36.550Z,25.6
2019-06-25T06:02:37.987Z,25.8
2019-06-25T06:03:39.395Z,25.9
2019-06-25T06:04:40.873Z,25.9
2019-06-25T06:05:42.276Z,26.1
2019-06-25T06:06:43.750Z,26.1
2019-06-25T06:07:45.158Z,26.0
2019-06-25T06:08:46.629Z,26.2
2019-06-25T06:09:48.038Z,26.2
2019-06-25T06:10:49.511Z,26.1
2019-06-25T06:11:50.920Z,25.9
2019-06-25T06:12:52.392Z,25.6
2019-06-25T06:13:53.800Z,25.8
2019-06-25T06:14:55.276Z,25.7
2019-06-25T06:15:56.695Z,25.7
2019-06-25T06:16:58.175Z,25.9
2019-06-25T06:17:59.579Z,26.1
2019-06-25T06:19:00.989Z,26.2
2019-06-25T06:20:02.506Z,26.5
2019-06-25T06:21:03.911Z,26.7
2019-06-25T06:22:05.318Z,26.7
2019-06-25T06:23:06.796Z,26.8
2019-06-25T06:24:08.215Z,26.8
2019-06-25T06:25:09.678Z,26.6
2019-06-25T06:26:17.817Z,26.6
2019-06-25T06:27:12.557Z,26.6
2019-06-25T06:28:13.969Z,26.6
2019-06-25T06:29:15.381Z,26.6
2019-06-25T06:30:16.878Z,26.7
2019-06-25T06:31:18.529Z,26.8
2019-06-25T06:32:19.677Z,26.8
2019-06-25T06:33:35.678Z,26.9
2019-06-25T06:34:22.474Z,27.1
2019-06-25T06:35:23.984Z,27.3
2019-06-25T06:36:26.051Z,27.3
2019-06-25T06:37:27.475Z,27.5
2019-06-25T06:38:28.891Z,27.5
2019-06-25T06:39:30.292Z,27.6
2019-06-25T06:40:31.801Z,27.3
2019-06-25T06:41:33.208Z,27.3
2019-06-25T06:42:34.627Z,27.2
2019-06-25T06:43:36.117Z,27.1
2019-06-25T06:44:37.532Z,27.1
2019-06-25T06:45:38.936Z,27.2
2019-06-25T06:46:40.440Z,27.2
2019-06-25T06:47:41.849Z,27.1
2019-06-25T06:48:43.255Z,27.3
2019-06-25T06:49:44.764Z,27.2
2019-06-25T06:50:46.175Z,27.1
2019-06-25T06:51:47.583Z,27.3
2019-06-25T06:52:49.085Z,27.2
2019-06-25T06:53:50.496Z,27.3
2019-06-25T06:54:51.910Z,27.3
2019-06-25T06:55:53.405Z,27.5
2019-06-25T06:56:54.816Z,27.9
2019-06-25T06:57:56.221Z,27.8
2019-06-25T06:58:57.777Z,28.0
2019-06-25T06:59:59.134Z,28.1
2019-06-25T07:01:00.547Z,28.0
2019-06-25T07:02:02.046Z,27.9
2019-06-25T07:03:03.451Z,27.9
2019-06-25T07:04:04.897Z,28.1
2019-06-25T07:05:06.372Z,28.1
2019-06-25T07:06:07.785Z,28.2
2019-06-25T07:07:09.252Z,28.1
2019-06-25T07:08:10.668Z,28.1
2019-06-25T07:09:12.127Z,28.3
2019-06-25T07:10:13.533Z,28.3
2019-06-25T07:11:15.012Z,28.5
2019-06-25T07:12:16.418Z,28.5
2019-06-25T07:13:17.903Z,28.9
2019-06-25T07:14:19.298Z,28.6
2019-06-25T07:15:20.718Z,28.6
2019-06-25T07:16:22.222Z,28.5
2019-06-25T07:17:23.620Z,28.6
2019-06-25T07:18:25.033Z,28.9
2019-06-25T07:19:26.547Z,29.0
2019-06-25T07:20:33.528Z,29.0
2019-06-25T07:21:29.328Z,29.1
2019-06-25T07:22:30.753Z,29.2
2019-06-25T07:23:32.175Z,29.4
2019-06-25T07:24:33.572Z,29.6
2019-06-25T07:25:35.077Z,29.6
2019-06-25T07:26:36.489Z,29.6
2019-06-25T07:27:40.549Z,29.8
2019-06-25T07:28:39.330Z,29.7
2019-06-25T07:29:40.746Z,29.9
2019-06-25T07:30:42.175Z,30.0
2019-06-25T07:31:43.711Z,29.8
2019-06-25T07:32:45.023Z,30.1
2019-06-25T07:33:46.500Z,30.1
2019-06-25T07:34:47.910Z,29.8
2019-06-25T07:35:49.539Z,29.8
2019-06-25T07:36:50.767Z,30.2
2019-06-25T07:37:52.259Z,30.6
2019-06-25T07:38:53.741Z,30.8
2019-06-25T07:39:55.091Z,30.9
2019-06-25T07:40:56.596Z,31.1
2019-06-25T07:41:58.007Z,30.8
2019-06-25T07:42:59.415Z,30.5
2019-06-25T07:44:01.042Z,30.7
2019-06-25T07:45:02.611Z,31.0
2019-06-25T07:46:03.752Z,31.2
2019-06-25T07:47:05.123Z,31.3
2019-06-25T07:48:06.540Z,31.1
2019-06-25T07:49:07.953Z,31.1
2019-06-25T07:50:09.444Z,30.9
2019-06-25T07:51:10.859Z,31.0
2019-06-25T07:52:12.325Z,31.7
2019-06-25T07:53:13.737Z,31.8
2019-06-25T07:54:15.205Z,31.6
2019-06-25T07:55:16.620Z,31.5
2019-06-25T07:56:18.085Z,31.4
2019-06-25T07:57:19.497Z,31.8
2019-06-25T07:58:22.735Z,31.2
2019-06-25T07:59:22.475Z,31.6
2019-06-25T08:00:23.926Z,31.8
2019-06-25T08:01:25.446Z,31.6
2019-06-25T08:02:26.931Z,31.9
2019-06-25T08:03:28.904Z,31.7
2019-06-25T08:04:29.843Z,32.0
2019-06-25T08:05:31.260Z,32.0
2019-06-25T08:06:32.672Z,32.0
2019-06-25T08:07:34.177Z,31.9
2019-06-25T08:08:35.591Z,31.7
2019-06-25T08:09:37.010Z,32.1
2019-06-25T08:10:40.995Z,32.3
2019-06-25T08:11:39.851Z,32.0
2019-06-25T08:12:41.343Z,32.0
2019-06-25T08:13:42.755Z,32.4
2019-06-25T08:14:46.271Z,32.5
2019-06-25T08:15:47.683Z,32.1
2019-06-25T08:16:49.151Z,32.1
2019-06-25T08:17:50.561Z,31.4
2019-06-25T08:18:52.027Z,31.5
2019-06-25T08:19:53.434Z,32.1
2019-06-25T08:20:54.855Z,32.1
2019-06-25T08:21:56.364Z,31.8
2019-06-25T08:22:57.782Z,31.9
2019-06-25T08:23:59.188Z,32.7
2019-06-25T08:25:00.660Z,33.1
2019-06-25T08:26:02.117Z,33.3
2019-06-25T08:27:03.549Z,33.3
2019-06-25T08:28:04.993Z,33.8
2019-06-25T08:29:06.399Z,33.7
2019-06-25T08:30:07.815Z,33.8
2019-06-25T08:31:09.313Z,33.2
2019-06-25T08:32:10.867Z,33.3
2019-06-25T08:33:12.282Z,33.3
2019-06-25T08:34:13.793Z,33.5
2019-06-25T08:35:15.203Z,33.6
2019-06-25T08:36:16.616Z,33.8
2019-06-25T08:37:18.055Z,34.2
2019-06-25T08:38:19.465Z,34.1
2019-06-25T08:39:20.983Z,33.9
2019-06-25T08:40:22.348Z,34.1
2019-06-25T08:41:23.767Z,34.8
2019-06-25T08:42:25.266Z,34.2
2019-06-25T08:43:29.568Z,34.0
2019-06-25T08:44:28.185Z,34.1
2019-06-25T08:45:29.489Z,34.3
2019-06-25T08:46:30.904Z,33.4
2019-06-25T08:47:32.318Z,32.6
2019-06-25T08:48:33.838Z,33.0
2019-06-25T08:49:35.213Z,32.6
2019-06-25T08:50:36.668Z,32.7
2019-06-25T08:51:38.120Z,32.4
2019-06-25T08:52:39.575Z,32.2
2019-06-25T08:53:41.102Z,32.8
2019-06-25T08:54:42.514Z,32.6
2019-06-25T08:55:43.928Z,33.7
2019-06-25T08:56:45.462Z,33.0
2019-06-25T08:57:46.867Z,34.3
2019-06-25T08:58:48.274Z,35.2
2019-06-25T08:59:49.747Z,35.5
2019-06-25T09:00:51.345Z,35.4
2019-06-25T09:01:52.774Z,34.1
2019-06-25T09:02:54.285Z,33.8
2019-06-25T09:03:55.782Z,34.0
2019-06-25T09:04:58.793Z,33.8
2019-06-25T09:05:58.716Z,34.0
2019-06-25T09:07:00.138Z,34.1
2019-06-25T09:08:01.549Z,33.9
2019-06-25T09:09:03.101Z,34.5
2019-06-25T09:10:04.510Z,34.8
2019-06-25T09:11:05.925Z,35.0
2019-06-25T09:12:07.434Z,35.1
2019-06-25T09:13:08.885Z,34.0
2019-06-25T09:14:10.302Z,33.5
2019-06-25T09:15:11.770Z,34.5
2019-06-25T09:16:13.174Z,34.4
2019-06-25T09:17:14.628Z,33.9
2019-06-25T09:18:16.098Z,35.3
2019-06-25T09:19:17.507Z,35.4
2019-06-25T09:20:18.921Z,34.7
2019-06-25T09:21:20.456Z,34.7
2019-06-25T09:22:21.864Z,34.6
2019-06-25T09:23:23.274Z,35.6
2019-06-25T09:24:24.727Z,35.3
2019-06-25T09:25:26.142Z,36.2
2019-06-25T09:26:27.599Z,35.5
2019-06-25T09:27:29.048Z,35.3
2019-06-25T09:28:30.459Z,35.3
2019-06-25T09:29:31.868Z,35.1
2019-06-25T09:30:36.739Z,34.9
2019-06-25T09:31:34.767Z,34.9
2019-06-25T09:32:36.182Z,36.5
2019-06-25T09:33:37.698Z,36.9
2019-06-25T09:34:39.155Z,37.3
2019-06-25T09:35:40.593Z,37.5
2019-06-25T09:36:42.116Z,36.9
2019-06-25T09:37:43.613Z,35.9
2019-06-25T09:38:44.964Z,35.4
2019-06-25T09:39:46.466Z,34.9
2019-06-25T09:40:47.853Z,34.6
2019-06-25T09:41:49.277Z,34.2
2019-06-25T09:42:50.902Z,34.3
2019-06-25T09:44:00.079Z,34.3
2019-06-25T09:44:53.743Z,34.3
2019-06-25T09:45:55.182Z,34.2
2019-06-25T09:46:56.595Z,35.0
2019-06-25T09:47:58.192Z,35.9
2019-06-25T09:48:59.607Z,36.9
2019-06-25T09:50:01.053Z,38.1
2019-06-25T09:51:02.495Z,38.4
2019-06-25T09:52:03.894Z,37.1
2019-06-25T09:53:05.382Z,36.1
2019-06-25T09:54:06.835Z,35.4
2019-06-25T09:55:08.234Z,34.1
2019-06-25T09:56:09.692Z,33.6
2019-06-25T09:57:11.102Z,33.6
2019-06-25T09:58:12.574Z,34.6
2019-06-25T09:59:13.983Z,34.5
2019-06-25T10:00:15.453Z,34.5
2019-06-25T10:01:25.830Z,34.4
2019-06-25T10:02:18.453Z,34.1
2019-06-25T10:03:19.670Z,33.8
2019-06-25T10:04:21.083Z,33.5
2019-06-25T10:05:31.678Z,33.4
2019-06-25T10:06:23.900Z,33.7
2019-06-25T10:07:25.364Z,33.6
2019-06-25T10:08:26.771Z,33.6
2019-06-25T10:09:28.187Z,33.6
2019-06-25T10:10:29.651Z,33.7
2019-06-25T10:11:31.067Z,33.6
2019-06-25T10:12:32.533Z,33.4
2019-06-25T10:13:33.938Z,34.2
2019-06-25T10:14:35.412Z,34.4
2019-06-25T10:15:36.824Z,34.3
2019-06-25T10:16:38.289Z,34.2
2019-06-25T10:17:39.706Z,34.0
2019-06-25T10:18:44.810Z,34.8
2019-06-25T10:19:42.559Z,34.8
2019-06-25T10:20:44.055Z,34.8
2019-06-25T10:21:45.500Z,34.8
2019-06-25T10:22:46.946Z,34.8
2019-06-25T10:23:48.364Z,34.2
2019-06-25T10:24:49.817Z,34.3
2019-06-25T10:25:51.225Z,34.1
2019-06-25T10:26:52.644Z,34.9
2019-06-25T10:27:54.140Z,35.5
2019-06-25T10:28:55.553Z,35.2
2019-06-25T10:29:56.971Z,34.6
2019-06-25T10:30:58.463Z,34.3
2019-06-25T10:31:59.868Z,34.8
2019-06-25T10:33:01.278Z,34.8
2019-06-25T10:34:02.785Z,34.5
2019-06-25T10:35:04.200Z,34.3
2019-06-25T10:36:05.635Z,33.9
2019-06-25T10:37:07.102Z,33.9
2019-06-25T10:38:08.508Z,33.9
2019-06-25T10:39:09.983Z,34.1
2019-06-25T10:40:11.399Z,34.1
2019-06-25T10:41:12.868Z,34.5
2019-06-25T10:42:14.296Z,34.5
2019-06-25T10:43:15.859Z,34.6
2019-06-25T10:44:17.284Z,34.4
2019-06-25T10:45:18.728Z,34.3
2019-06-25T10:46:20.139Z,34.3
2019-06-25T10:47:21.625Z,34.5
2019-06-25T10:48:26.344Z,34.5
2019-06-25T10:49:24.541Z,34.3
2019-06-25T10:50:25.943Z,34.3
2019-06-25T10:51:27.460Z,34.5
2019-06-25T10:52:28.740Z,34.4
2019-06-25T10:53:30.255Z,34.4
2019-06-25T10:54:31.663Z,34.8
2019-06-25T10:55:33.138Z,34.7
2019-06-25T10:56:34.550Z,34.9
2019-06-25T10:57:36.013Z,35.0
2019-06-25T10:58:37.492Z,35.1
2019-06-25T10:59:39.059Z,35.3
2019-06-25T11:00:40.471Z,35.0
2019-06-25T11:01:41.982Z,34.7
2019-06-25T11:02:43.392Z,35.0
2019-06-25T11:03:45.917Z,34.9
2019-06-25T11:04:47.324Z,34.7
2019-06-25T11:06:03.459Z,34.6
2019-06-25T11:07:01.630Z,34.6
2019-06-25T11:07:51.516Z,34.8
2019-06-25T11:08:52.988Z,35.1
2019-06-25T11:09:54.397Z,35.2
2019-06-25T11:10:55.806Z,35.2
2019-06-25T11:11:57.315Z,35.5
2019-06-25T11:12:58.721Z,35.2
2019-06-25T11:14:08.439Z,35.6
2019-06-25T11:15:01.908Z,35.9
2019-06-25T11:16:03.197Z,35.9
2019-06-25T11:17:04.662Z,35.9
2019-06-25T11:18:08.884Z,36.1
2019-06-25T11:19:07.491Z,35.7
2019-06-25T11:20:08.902Z,35.5
2019-06-25T11:21:10.335Z,35.6
2019-06-25T11:22:11.816Z,35.6
2019-06-25T11:23:13.229Z,35.5
2019-06-25T11:24:14.632Z,35.3
2019-06-25T11:25:16.183Z,35.4
2019-06-25T11:26:23.345Z,35.7
2019-06-25T11:27:19.511Z,35.8
2019-06-25T11:28:20.966Z,36.0
2019-06-25T11:29:22.377Z,35.5
2019-06-25T11:30:23.775Z,35.0
2019-06-25T11:31:25.290Z,35.1
2019-06-25T11:32:26.757Z,35.1
2019-06-25T11:33:28.146Z,34.8
2019-06-25T11:34:29.611Z,34.4
2019-06-25T11:35:31.026Z,35.1
2019-06-25T11:36:32.488Z,34.8
2019-06-25T11:37:33.898Z,35.4
2019-06-25T11:38:35.372Z,35.5
2019-06-25T11:39:36.789Z,35.6
2019-06-25T11:40:38.256Z,35.6
2019-06-25T11:41:39.860Z,35.5
2019-06-25T11:42:41.351Z,35.4
2019-06-25T11:43:44.692Z,35.6
2019-06-25T11:44:44.223Z,35.7
2019-06-25T11:45:45.631Z,35.6
2019-06-25T11:46:47.116Z,35.3
2019-06-25T11:47:48.523Z,35.3
2019-06-25T11:48:50.803Z,35.2
2019-06-25T11:49:52.235Z,35.1
2019-06-25T11:50:53.682Z,35.1
2019-06-25T11:51:55.133Z,35.3
2019-06-25T11:52:56.750Z,35.1
2019-06-25T11:53:58.227Z,35.2
2019-06-25T11:54:59.757Z,35.5
2019-06-25T11:56:01.295Z,35.9
2019-06-25T11:57:02.733Z,36.0
2019-06-25T11:58:04.268Z,35.7
2019-06-25T11:59:06.006Z,35.9
2019-06-25T12:00:07.502Z,36.2
2019-06-25T12:01:08.908Z,36.1
2019-06-25T12:02:10.347Z,36.0
2019-06-25T12:03:11.797Z,35.7
2019-06-25T12:04:13.212Z,35.5
2019-06-25T12:05:14.612Z,35.0
2019-06-25T12:06:29.424Z,35.6
2019-06-25T12:07:17.507Z,35.7
2019-06-25T12:08:18.915Z,35.6
2019-06-25T12:09:20.645Z,35.4
2019-06-25T12:10:22.074Z,35.5
2019-06-25T12:11:23.514Z,35.3
2019-06-25T12:12:24.927Z,35.0
2019-06-25T12:13:26.327Z,34.9
2019-06-25T12:14:29.167Z,35.2
2019-06-25T12:15:30.404Z,34.9
2019-06-25T12:16:31.822Z,35.1
2019-06-25T12:17:33.288Z,35.0
2019-06-25T12:18:34.725Z,35.7
2019-06-25T12:19:47.881Z,35.6
2019-06-25T12:20:37.500Z,35.5
2019-06-25T12:21:38.909Z,35.4
2019-06-25T12:22:40.317Z,35.3
2019-06-25T12:23:41.828Z,35.6
2019-06-25T12:24:43.242Z,35.4
2019-06-25T12:25:44.651Z,35.2
2019-06-25T12:26:46.142Z,35.6
2019-06-25T12:27:47.595Z,35.9
2019-06-25T12:28:48.959Z,35.7
2019-06-25T12:29:50.471Z,35.5
2019-06-25T12:30:51.893Z,35.6
2019-06-25T12:31:53.372Z,35.6
2019-06-25T12:32:54.752Z,35.6
2019-06-25T12:33:56.227Z,35.3
2019-06-25T12:34:59.330Z,35.1
2019-06-25T12:35:59.109Z,35.4
2019-06-25T12:37:08.995Z,35.5
2019-06-25T12:38:02.030Z,35.6
2019-06-25T12:39:05.348Z,35.9
2019-06-25T12:40:06.759Z,35.5
2019-06-25T12:41:10.913Z,35.6
2019-06-25T12:42:12.398Z,36.0
2019-06-25T12:43:13.809Z,35.7
2019-06-25T12:44:15.827Z,35.7
2019-06-25T12:45:17.147Z,35.7
2019-06-25T12:46:18.518Z,35.8
2019-06-25T12:47:19.977Z,35.9
2019-06-25T12:48:21.388Z,35.7
2019-06-25T12:49:22.804Z,35.5
2019-06-25T12:50:24.294Z,35.8
2019-06-25T12:51:26.346Z,35.8
2019-06-25T12:52:30.629Z,35.7
2019-06-25T12:53:33.129Z,35.9
2019-06-25T12:54:34.542Z,35.5
2019-06-25T12:55:36.006Z,35.4
2019-06-25T12:56:38.244Z,35.2
2019-06-25T12:57:39.558Z,35.1
2019-06-25T12:58:41.062Z,35.1
2019-06-25T12:59:42.468Z,35.5
2019-06-25T13:00:43.870Z,35.6
2019-06-25T13:01:45.281Z,35.4
2019-06-25T13:02:46.690Z,35.1
2019-06-25T13:03:48.143Z,35.1
2019-06-25T13:04:49.587Z,35.0
2019-06-25T13:05:53.437Z,35.3
2019-06-25T13:06:55.862Z,35.5
2019-06-25T13:07:59.365Z,35.6
2019-06-25T13:09:00.710Z,35.5
2019-06-25T13:10:02.211Z,35.6
2019-06-25T13:11:03.636Z,35.6
2019-06-25T13:12:05.033Z,36.0
2019-06-25T13:13:06.578Z,36.1
2019-06-25T13:14:07.942Z,36.2
2019-06-25T13:15:09.351Z,36.1
2019-06-25T13:16:10.758Z,36.0
2019-06-25T13:17:12.167Z,35.9
2019-06-25T13:18:13.632Z,35.9
2019-06-25T13:19:15.044Z,35.8
2019-06-25T13:20:16.450Z,35.6
2019-06-25T13:21:17.962Z,35.6
2019-06-25T13:22:19.364Z,35.7
2019-06-25T13:23:20.794Z,35.5
2019-06-25T13:24:24.100Z,35.3
2019-06-25T13:25:25.353Z,35.2
2019-06-25T13:26:26.758Z,35.3
2019-06-25T13:27:28.233Z,35.3
2019-06-25T13:28:29.645Z,35.5
2019-06-25T13:29:31.051Z,35.4
2019-06-25T13:30:32.555Z,35.3
2019-06-25T13:31:33.962Z,35.3
2019-06-25T13:32:35.443Z,35.2
2019-06-25T13:33:36.854Z,35.3
2019-06-25T13:34:38.249Z,35.4
2019-06-25T13:35:39.719Z,35.2
2019-06-25T13:36:41.032Z,35.4
2019-06-25T13:37:43.515Z,35.3